Meteorología y climatología de Navarra
Datos de la estación - Meteo Navarra

Estación de Aguilar de Codés GN

Altitud 736 m.


Datos desde el 10/10/2019 hasta el 11/10/2019 en horario solar
Los datos son PROVISIONALES

Anterior Página 1 de 1 Siguiente Descargar: Formato para Excel 2000 o superior   Formato csv   Formato para OpenOffice Calc
Fecha Temperatura Humedad relativa Radiación global Insolación Precipitación Vel. viento 10 m Vel. viento 10 m Dir. viento 10 m
ºC % W/m² s l/m² m/s km/h º
10/10/2019 0:00 8.8 80 0.0 0 0.0 3.6 13.1 312
10/10/2019 0:10 8.6 81 0.0 0 0.0 3.7 13.4 311
10/10/2019 0:20 8.6 80 0.0 0 0.0 3.4 12.3 310
10/10/2019 0:30 9.0 78 0.0 0 0.0 3.6 12.8 313
10/10/2019 0:40 8.6 79 0.0 0 0.0 3.0 10.9 316
10/10/2019 0:50 8.3 81 0.0 0 0.0 2.8 10.0 317
10/10/2019 1:00 8.2 82 0.0 0 0.0 3.0 10.7 315
10/10/2019 1:10 8.4 81 0.0 0 0.0 3.0 10.7 305
10/10/2019 1:20 8.4 81 0.0 0 0.0 2.1 7.5 312
10/10/2019 1:30 8.2 82 0.0 0 0.0 2.4 8.6 309
10/10/2019 1:40 8.2 81 0.0 0 0.0 2.9 10.3 316
10/10/2019 1:50 8.1 82 0.0 0 0.0 2.5 8.9 314
10/10/2019 2:00 7.8 83 0.0 0 0.0 1.9 6.7 291
10/10/2019 2:10 7.7 83 0.0 0 0.0 2.8 9.9 307
10/10/2019 2:20 7.5 85 0.0 0 0.0 3.7 13.4 311
10/10/2019 2:30 7.4 86 0.0 0 0.0 3.4 12.4 308
10/10/2019 2:40 7.6 86 0.0 0 0.0 3.4 12.2 307
10/10/2019 2:50 7.8 85 0.0 0 0.0 3.9 14.1 312
10/10/2019 3:00 8.0 85 0.0 0 0.0 3.4 12.1 312
10/10/2019 3:10 7.8 85 0.0 0 0.0 2.6 9.4 312
10/10/2019 3:20 8.1 85 0.0 0 0.0 2.2 7.9 299
10/10/2019 3:30 7.7 85 0.0 0 0.0 2.6 9.3 304
10/10/2019 3:40 7.8 86 0.0 0 0.0 2.8 10.2 314
10/10/2019 3:50 8.0 85 0.0 0 0.0 2.8 10.1 313
10/10/2019 4:00 7.8 85 0.0 0 0.0 3.0 10.8 311
10/10/2019 4:10 7.9 85 0.0 0 0.0 3.1 11.2 305
10/10/2019 4:20 7.8 85 0.0 0 0.0 3.3 11.8 306
10/10/2019 4:30 7.8 85 0.0 0 0.0 3.5 12.7 306
10/10/2019 4:40 7.6 84 0.0 0 0.0 2.5 9.0 310
10/10/2019 4:50 7.5 83 0.0 0 0.0 2.3 8.4 309
10/10/2019 5:00 7.0 84 0.0 0 0.0 2.4 8.8 317
10/10/2019 5:10 7.6 83 0.0 0 0.0 2.7 9.5 319
10/10/2019 5:20 7.4 82 0.0 0 0.0 2.3 8.2 324
10/10/2019 5:30 6.5 86 0.0 0 0.0 2.8 10.0 324
10/10/2019 5:40 7.7 82 0.0 0 0.0 1.7 6.3 323
10/10/2019 5:50 7.8 81 0.0 0 0.0 1.0 3.6 305
10/10/2019 6:00 7.5 82 0.0 0 0.0 1.0 3.6 310
10/10/2019 6:10 7.7 81 0.0 0 0.0 0.9 3.3 286
10/10/2019 6:20 7.6 82 0.0 0 0.0 1.0 3.5 289
10/10/2019 6:30 7.6 82 15.5 0 0.0 1.6 5.7 314
10/10/2019 6:40 7.6 83 35.7 456 0.0 2.3 8.2 313
10/10/2019 6:50 8.3 81 59.1 600 0.0 2.8 10.2 313
10/10/2019 7:00 8.6 79 84.7 600 0.0 3.0 10.8 312
10/10/2019 7:10 8.7 79 112.6 600 0.0 3.2 11.3 309
10/10/2019 7:20 8.9 80 142.2 600 0.0 3.2 11.5 311
10/10/2019 7:30 9.1 80 172.7 600 0.0 3.5 12.5 311
10/10/2019 7:40 9.2 80 204.1 600 0.0 3.8 13.6 310
10/10/2019 7:50 9.4 80 236.1 600 0.0 3.4 12.3 314
10/10/2019 8:00 9.7 80 268.6 600 0.0 3.9 14.1 316
10/10/2019 8:10 10.1 78 299.8 600 0.0 3.1 11.0 315
10/10/2019 8:20 10.9 74 330.8 600 0.0 3.4 12.2 310
10/10/2019 8:30 11.2 70 361.4 600 0.0 3.9 14.1 314
10/10/2019 8:40 11.4 69 390.0 600 0.0 3.9 13.9 314
10/10/2019 8:50 11.8 66 417.1 600 0.0 3.8 13.7 317
10/10/2019 9:00 12.0 65 443.1 600 0.0 3.3 12.0 320
10/10/2019 9:10 12.3 64 465.6 600 0.0 3.1 11.2 318
10/10/2019 9:20 12.5 64 487.0 600 0.0 3.4 12.2 314
10/10/2019 9:30 12.9 62 507.2 600 0.0 3.0 10.7 314
10/10/2019 9:40 13.4 61 526.0 600 0.0 3.1 11.2 321
10/10/2019 9:50 13.5 60 542.5 600 0.0 2.9 10.3 309
10/10/2019 10:00 13.7 60 559.2 600 0.0 2.9 10.5 318
10/10/2019 10:10 14.2 58 575.7 600 0.0 2.4 8.5 304
10/10/2019 10:20 14.5 57 592.0 600 0.0 2.4 8.6 295
10/10/2019 10:30 14.6 57 607.4 600 0.0 2.2 7.8 328
10/10/2019 10:40 14.8 57 621.4 600 0.0 2.1 7.4 348
10/10/2019 10:50 15.3 55 633.8 600 0.0 2.6 9.3 335
10/10/2019 11:00 15.2 55 644.9 600 0.0 1.7 6.0 337
10/10/2019 11:10 15.5 54 654.2 600 0.0 0.9 3.3 308
10/10/2019 11:20 16.5 51 665.2 600 0.0 1.4 5.1 283
10/10/2019 11:30 17.0 49 677.1 600 0.0 1.3 4.8 239
10/10/2019 11:40 17.2 47 684.9 600 0.0 1.3 4.5 210
10/10/2019 11:50 17.1 49 690.8 600 0.0 1.4 4.9 312
10/10/2019 12:00 17.3 47 695.8 600 0.0 1.2 4.3 279
10/10/2019 12:10 17.0 47 696.9 600 0.0 2.5 8.9 311
10/10/2019 12:20 17.3 47 707.4 600 0.0 1.7 5.9 297
10/10/2019 12:30 17.9 45 704.6 600 0.0 1.6 5.6 298
10/10/2019 12:40 18.0 45 699.7 600 0.0 0.8 3.0 49
10/10/2019 12:50 18.8 44 690.9 600 0.0 1.4 4.9 302
10/10/2019 13:00 18.2 45 682.0 600 0.0 1.7 6.2 312
10/10/2019 13:10 18.1 44 667.1 600 0.0 2.1 7.6 313
10/10/2019 13:20 18.6 42 659.9 600 0.0 0.8 2.9 294
10/10/2019 13:30 19.2 41 648.4 600 0.0 1.8 6.5 352
10/10/2019 13:40 18.9 40 634.4 600 0.0 1.9 6.9 332
10/10/2019 13:50 18.8 40 615.1 600 0.0 1.5 5.4 343
10/10/2019 14:00 19.1 39 588.6 600 0.0 1.6 5.8 335
10/10/2019 14:10 19.1 38 552.5 600 0.0 1.0 3.5 296
10/10/2019 14:20 19.5 37 508.2 600 0.0 1.0 3.6 257
10/10/2019 14:30 19.8 36 458.1 600 0.0 1.1 4.1 302
10/10/2019 14:40 19.4 36 407.7 600 0.0 1.5 5.2 319
10/10/2019 14:50 19.5 35 360.1 600 0.0 1.3 4.5 334
10/10/2019 15:00 19.3 34 319.6 600 0.0 1.5 5.2 330
10/10/2019 15:10 19.3 32 286.7 600 0.0 1.5 5.3 333
10/10/2019 15:20 19.6 34 258.9 600 0.0 0.9 3.2 298
10/10/2019 15:30 20.7 33 234.7 600 0.0 1.4 4.9 203
10/10/2019 15:40 20.9 32 209.1 600 0.0 0.7 2.6 192
10/10/2019 15:50 20.9 33 187.6 600 0.0 1.0 3.6 195
10/10/2019 16:00 20.9 35 175.6 600 0.0 1.7 6.0 212
10/10/2019 16:10 20.6 37 166.7 600 0.0 1.1 4.1 201
10/10/2019 16:20 20.7 37 160.2 600 0.0 1.0 3.6 208
10/10/2019 16:30 20.2 38 152.3 600 0.0 1.3 4.7 217
10/10/2019 16:40 19.8 40 137.8 600 0.0 1.6 5.6 205
10/10/2019 16:50 18.9 41 114.7 600 0.0 2.5 9.0 192
10/10/2019 17:00 18.2 43 70.0 444 0.0 2.8 9.9 189
10/10/2019 17:10 17.4 44 23.2 0 0.0 2.5 9.0 196
10/10/2019 17:20 16.7 46 18.3 0 0.0 2.2 8.0 197
10/10/2019 17:30 16.4 47 0.7 0 0.0 0.9 3.2 220
10/10/2019 17:40 16.2 47 0.0 0 0.0 0.5 1.9 266
10/10/2019 17:50 16.0 47 0.0 0 0.0 0.4 1.5 360
10/10/2019 18:00 15.8 48 0.0 0 0.0 0.2 0.8 22
10/10/2019 18:10 15.6 48 0.0 0 0.0 0.4 1.4 158
10/10/2019 18:20 15.4 49 0.0 0 0.0 0.1 0.3 211
10/10/2019 18:30 14.4 51 0.0 0 0.0 0.5 1.8 336
10/10/2019 18:40 14.2 52 0.0 0 0.0 0.5 1.6 321
10/10/2019 18:50 14.4 51 0.0 0 0.0 0.6 2.2 318
10/10/2019 19:00 14.1 52 0.0 0 0.0 0.6 2.2 319
10/10/2019 19:10 14.1 52 0.0 0 0.0 0.0 0.0 220
10/10/2019 19:20 13.9 52 0.0 0 0.0 0.1 0.3 323
10/10/2019 19:30 13.2 55 0.0 0 0.0 0.8 3.0 352
10/10/2019 19:40 13.5 55 0.0 0 0.0 0.5 1.7 107
10/10/2019 19:50 13.5 55 0.0 0 0.0 0.5 1.6 72
10/10/2019 20:00 13.6 55 0.0 0 0.0 0.4 1.3 38
10/10/2019 20:10 13.5 55 0.0 0 0.0 0.3 1.0 47
10/10/2019 20:20 13.5 55 0.0 0 0.0 0.3 0.9 67
10/10/2019 20:30 13.3 56 0.0 0 0.0 0.5 1.8 69
10/10/2019 20:40 13.1 57 0.0 0 0.0 0.9 3.3 111
10/10/2019 20:50 13.6 56 0.0 0 0.0 1.1 3.9 137
10/10/2019 21:00 14.2 54 0.0 0 0.0 1.5 5.5 134
10/10/2019 21:10 14.1 54 0.0 0 0.0 1.6 5.8 145
10/10/2019 21:20 14.2 55 0.0 0 0.0 1.7 6.2 131
10/10/2019 21:30 14.2 56 0.0 0 0.0 1.3 4.6 137
10/10/2019 21:40 14.2 56 0.0 0 0.0 1.3 4.6 134
10/10/2019 21:50 14.3 56 0.0 0 0.0 1.5 5.3 127
10/10/2019 22:00 14.1 56 0.0 0 0.0 1.6 5.8 117
10/10/2019 22:10 14.0 57 0.0 0 0.0 1.3 4.6 109
10/10/2019 22:20 13.7 58 0.0 0 0.0 1.3 4.8 114
10/10/2019 22:30 13.9 58 0.0 0 0.0 1.4 5.0 121
10/10/2019 22:40 14.0 57 0.0 0 0.0 1.1 4.1 154
10/10/2019 22:50 14.2 56 0.0 0 0.0 1.3 4.8 128
10/10/2019 23:00 14.1 57 0.0 0 0.0 1.6 5.7 121
10/10/2019 23:10 14.1 56 0.0 0 0.0 1.9 6.7 118
10/10/2019 23:20 14.0 57 0.0 0 0.0 1.8 6.4 104
10/10/2019 23:30 13.9 57 0.0 0 0.0 1.9 6.7 114
10/10/2019 23:40 13.8 58 0.0 0 0.0 1.6 5.9 112
10/10/2019 23:50 13.8 58 0.0 0 0.0 2.0 7.2 108
Anterior Página 1 de 1 Siguiente

NOTA: Tipo de datos según el color:
   - Valores diarios o 10 minutos correctos
   - Valores diarios calculados a partir de un número de datos 10 minutos menor que 144 y mayor que 120, o de un número de datos semihorarios menor que 48 y mayor que 40 (caso de las estaciones de Riegos de Navarra y del MARM)
   - Valores diez minutos estimados


Contacto        Enlaces        Aviso legal